createdAt,value
2018-11-22T00:00:42.557Z,22.37
2018-11-22T00:03:12.586Z,23.17
2018-11-22T00:05:42.653Z,20.03
2018-11-22T00:08:11.859Z,20.67
2018-11-22T00:10:41.029Z,20.33
2018-11-22T00:13:10.261Z,19.03
2018-11-22T00:15:39.433Z,20.90
2018-11-22T00:18:08.590Z,20.90
2018-11-22T00:20:37.802Z,21.33
2018-11-22T00:23:06.932Z,20.67
2018-11-22T00:25:36.058Z,19.73
2018-11-22T00:28:05.454Z,23.03
2018-11-22T00:30:34.553Z,20.70
2018-11-22T00:33:03.664Z,22.37
2018-11-22T00:35:32.768Z,20.10
2018-11-22T00:38:01.868Z,20.40
2018-11-22T00:40:31.008Z,20.37
2018-11-22T00:43:00.154Z,22.97
2018-11-22T00:45:29.599Z,24.97
2018-11-22T00:47:58.739Z,21.23
2018-11-22T00:50:27.808Z,20.83
2018-11-22T00:52:56.898Z,21.70
2018-11-22T00:55:26.779Z,19.87
2018-11-22T00:57:56.442Z,18.90
2018-11-22T01:00:27.042Z,22.40
2018-11-22T01:02:56.160Z,19.37
2018-11-22T01:05:26.092Z,21.40
2018-11-22T01:07:55.258Z,24.40
2018-11-22T01:10:25.747Z,21.17
2018-11-22T01:12:56.473Z,19.60
2018-11-22T01:15:25.571Z,28.53
2018-11-22T01:17:54.776Z,21.47
2018-11-22T01:20:24.989Z,23.60
2018-11-22T01:22:55.501Z,22.07
2018-11-22T01:25:24.652Z,21.50
2018-11-22T01:27:53.773Z,21.73
2018-11-22T01:30:23.726Z,21.80
2018-11-22T01:32:53.600Z,24.07
2018-11-22T01:35:23.339Z,20.03
2018-11-22T01:37:52.549Z,18.40
2018-11-22T01:40:22.765Z,21.37
2018-11-22T01:42:51.946Z,21.83
2018-11-22T01:45:25.277Z,19.93
2018-11-22T01:47:54.526Z,24.23
2018-11-22T01:50:23.833Z,19.30
2018-11-22T01:52:53.198Z,19.67
2018-11-22T01:55:23.103Z,18.40
2018-11-22T01:57:52.230Z,20.17
2018-11-22T02:00:24.068Z,21.20
2018-11-22T02:02:53.261Z,20.20
2018-11-22T02:05:23.582Z,21.87
2018-11-22T02:07:53.107Z,19.40
2018-11-22T02:10:23.154Z,20.53
2018-11-22T02:12:52.292Z,22.10
2018-11-22T02:15:23.100Z,20.50
2018-11-22T02:17:52.395Z,23.60
2018-11-22T02:20:22.362Z,20.43
2018-11-22T02:22:51.803Z,19.27
2018-11-22T02:25:22.233Z,19.40
2018-11-22T02:27:51.373Z,23.83
2018-11-22T02:30:21.902Z,19.63
2018-11-22T02:32:52.382Z,21.97
2018-11-22T02:35:21.977Z,20.03
2018-11-22T02:37:51.122Z,18.77
2018-11-22T02:40:21.620Z,21.13
2018-11-22T02:42:51.639Z,19.73
2018-11-22T02:45:24.937Z,25.33
2018-11-22T02:47:54.045Z,26.50
2018-11-22T02:50:23.957Z,25.60
2018-11-22T02:52:53.841Z,24.37
2018-11-22T02:55:22.998Z,24.80
2018-11-22T02:57:52.093Z,20.83
2018-11-22T03:00:41.192Z,24.40
2018-11-22T03:03:11.535Z,21.53
2018-11-22T03:05:40.737Z,21.93
2018-11-22T03:08:09.894Z,22.33
2018-11-22T03:10:39.045Z,24.03
2018-11-22T03:13:09.377Z,20.63
2018-11-22T03:15:38.537Z,23.73
2018-11-22T03:18:07.738Z,25.43
2018-11-22T03:20:36.896Z,24.07
2018-11-22T03:23:06.152Z,23.20
2018-11-22T03:25:35.409Z,21.87
2018-11-22T03:28:04.528Z,24.37
2018-11-22T03:30:33.677Z,22.10
2018-11-22T03:33:02.807Z,23.93
2018-11-22T03:35:31.922Z,22.90
2018-11-22T03:38:01.077Z,21.67
2018-11-22T03:40:30.267Z,23.10
2018-11-22T03:42:59.442Z,23.03
2018-11-22T03:45:28.546Z,21.70
2018-11-22T03:47:57.709Z,21.43
2018-11-22T03:50:27.709Z,26.13
2018-11-22T03:52:57.183Z,21.63
2018-11-22T03:55:26.301Z,21.40
2018-11-22T03:57:55.759Z,20.40
2018-11-22T04:00:26.493Z,23.17
2018-11-22T04:02:55.666Z,22.33
2018-11-22T04:05:25.730Z,24.80
2018-11-22T04:07:54.864Z,24.10
2018-11-22T04:10:25.419Z,23.50
2018-11-22T04:12:54.769Z,21.77
2018-11-22T04:15:24.065Z,22.83
2018-11-22T04:17:53.278Z,25.90
2018-11-22T04:20:23.870Z,23.27
2018-11-22T04:22:53.091Z,24.77
2018-11-22T04:25:22.585Z,24.53
2018-11-22T04:27:52.631Z,27.97
2018-11-22T04:30:29.395Z,23.30
2018-11-22T04:32:58.593Z,22.53
2018-11-22T04:35:28.061Z,23.87
2018-11-22T04:37:57.259Z,27.37
2018-11-22T04:40:27.990Z,25.27
2018-11-22T04:42:57.291Z,25.63
2018-11-22T04:45:26.427Z,25.17
2018-11-22T04:47:57.084Z,23.13
2018-11-22T04:50:27.922Z,27.10
2018-11-22T04:52:57.071Z,26.67
2018-11-22T04:55:26.246Z,22.73
2018-11-22T04:57:58.097Z,24.73
2018-11-22T05:00:25.142Z,25.80
2018-11-22T05:02:54.406Z,27.93
2018-11-22T05:05:24.775Z,24.97
2018-11-22T05:07:53.915Z,25.47
2018-11-22T05:10:27.433Z,25.63
2018-11-22T05:12:56.752Z,25.43
2018-11-22T05:15:27.575Z,27.27
2018-11-22T05:17:56.757Z,25.07
2018-11-22T05:20:25.962Z,24.67
2018-11-22T05:22:55.210Z,24.43
2018-11-22T05:25:24.322Z,25.30
2018-11-22T05:27:53.422Z,27.13
2018-11-22T05:30:24.112Z,23.90
2018-11-22T05:32:53.225Z,24.07
2018-11-22T05:35:22.610Z,26.40
2018-11-22T05:37:51.782Z,25.63
2018-11-22T05:40:22.352Z,25.13
2018-11-22T05:42:51.529Z,22.73
2018-11-22T05:45:22.007Z,26.47
2018-11-22T05:47:51.277Z,23.23
2018-11-22T05:50:21.858Z,24.93
2018-11-22T05:52:51.756Z,25.00
2018-11-22T05:55:20.990Z,24.90
2018-11-22T05:57:50.174Z,25.80
2018-11-22T06:00:23.852Z,25.90
2018-11-22T06:02:53.278Z,25.50
2018-11-22T06:05:23.671Z,21.97
2018-11-22T06:07:52.834Z,22.47
2018-11-22T06:10:23.351Z,25.03
2018-11-22T06:12:53.369Z,26.47
2018-11-22T06:15:22.578Z,21.40
2018-11-22T06:17:52.688Z,22.10
2018-11-22T06:20:23.146Z,23.83
2018-11-22T06:22:52.627Z,23.47
2018-11-22T06:25:21.928Z,25.33
2018-11-22T06:27:51.519Z,22.30
2018-11-22T06:30:21.926Z,22.77
2018-11-22T06:32:52.526Z,23.97
2018-11-22T06:35:22.102Z,23.53
2018-11-22T06:37:51.199Z,21.33
2018-11-22T06:40:20.399Z,24.07
2018-11-22T06:42:50.854Z,20.80
2018-11-22T06:45:24.158Z,22.73
2018-11-22T06:47:53.231Z,23.03
2018-11-22T06:50:23.225Z,24.40
2018-11-22T06:52:52.691Z,21.77
2018-11-22T06:55:29.097Z,23.23
2018-11-22T06:57:58.287Z,21.73
2018-11-22T07:00:28.237Z,25.03
2018-11-22T07:02:59.227Z,21.50
2018-11-22T07:05:29.225Z,22.83
2018-11-22T07:07:58.419Z,21.30
2018-11-22T07:10:27.749Z,23.67
2018-11-22T07:12:57.744Z,22.17
2018-11-22T07:15:26.891Z,21.93
2018-11-22T07:17:56.303Z,21.97
2018-11-22T07:20:26.454Z,25.37
2018-11-22T07:22:57.313Z,23.03
2018-11-22T07:25:26.701Z,21.00
2018-11-22T07:27:55.860Z,21.87
2018-11-22T07:30:26.765Z,21.60
2018-11-22T07:32:56.102Z,21.97
2018-11-22T07:35:26.837Z,21.60
2018-11-22T07:37:56.172Z,22.03
2018-11-22T07:40:26.843Z,22.50
2018-11-22T07:42:56.003Z,20.63
2018-11-22T07:45:30.659Z,24.13
2018-11-22T07:48:00.754Z,21.57
2018-11-22T07:50:29.864Z,22.57
2018-11-22T07:52:59.157Z,22.87
2018-11-22T07:55:28.276Z,23.03
2018-11-22T07:57:57.420Z,20.17
2018-11-22T08:00:31.028Z,21.03
2018-11-22T08:03:00.231Z,20.70
2018-11-22T08:05:30.574Z,19.40
2018-11-22T08:07:59.761Z,20.20
2018-11-22T08:10:29.045Z,22.23
2018-11-22T08:12:58.946Z,20.03
2018-11-22T08:15:29.666Z,23.47
2018-11-22T08:17:59.054Z,20.23
2018-11-22T08:20:28.394Z,20.50
2018-11-22T08:22:58.952Z,19.53
2018-11-22T08:25:29.260Z,20.00
2018-11-22T08:27:58.466Z,20.63
2018-11-22T08:30:27.764Z,21.13
2018-11-22T08:32:56.959Z,21.63
2018-11-22T08:35:26.166Z,20.00
2018-11-22T08:37:55.282Z,22.10
2018-11-22T08:40:26.116Z,20.63
2018-11-22T08:42:55.479Z,19.20
2018-11-22T08:45:25.539Z,21.73
2018-11-22T08:47:54.898Z,17.33
2018-11-22T08:50:25.563Z,18.03
2018-11-22T08:52:56.098Z,16.27
2018-11-22T08:55:25.245Z,19.20
2018-11-22T08:57:54.484Z,18.83
2018-11-22T09:00:27.576Z,17.13
2018-11-22T09:02:57.274Z,23.50
2018-11-22T09:05:27.921Z,17.93
2018-11-22T09:07:57.275Z,19.23
2018-11-22T09:10:27.223Z,18.87
2018-11-22T09:12:57.439Z,17.40
2018-11-22T09:15:31.428Z,18.50
2018-11-22T09:17:57.978Z,19.80
2018-11-22T09:20:28.822Z,20.10
2018-11-22T09:22:58.085Z,19.80
2018-11-22T09:25:27.443Z,21.60
2018-11-22T09:27:56.893Z,19.07
2018-11-22T09:30:27.763Z,17.63
2018-11-22T09:32:57.049Z,16.90
2018-11-22T09:35:27.509Z,16.20
2018-11-22T09:37:56.758Z,16.73
2018-11-22T09:40:27.117Z,15.27
2018-11-22T09:42:56.294Z,16.33
2018-11-22T09:45:30.327Z,16.00
2018-11-22T09:47:59.635Z,18.53
2018-11-22T09:50:29.449Z,16.43
2018-11-22T09:53:05.800Z,17.13
2018-11-22T09:55:35.165Z,21.17
2018-11-22T09:58:04.392Z,17.20
2018-11-22T10:00:33.591Z,15.93
2018-11-22T10:03:03.158Z,19.37
2018-11-22T10:05:33.346Z,17.67
2018-11-22T10:08:02.659Z,20.10
2018-11-22T10:10:36.275Z,16.10
2018-11-22T10:13:05.775Z,18.93
2018-11-22T10:15:36.129Z,16.20
2018-11-22T10:18:05.261Z,15.33
2018-11-22T10:20:34.455Z,16.20
2018-11-22T10:23:03.655Z,16.27
2018-11-22T10:25:32.799Z,17.97
2018-11-22T10:28:02.483Z,18.20
2018-11-22T10:30:31.693Z,17.97
2018-11-22T10:33:02.135Z,19.50
2018-11-22T10:35:33.027Z,18.23
2018-11-22T10:38:02.419Z,20.00
2018-11-22T10:40:31.739Z,19.93
2018-11-22T10:43:01.871Z,20.27
2018-11-22T10:45:32.562Z,17.13
2018-11-22T10:48:03.262Z,20.40
2018-11-22T10:50:33.357Z,22.30
2018-11-22T10:53:02.596Z,42.10
2018-11-22T10:55:33.671Z,38.40
2018-11-22T10:58:03.301Z,26.97
2018-11-22T11:00:51.536Z,19.73
2018-11-22T11:03:38.110Z,22.70
2018-11-22T11:06:25.189Z,23.83
2018-11-22T11:08:54.454Z,24.37
2018-11-22T11:11:23.752Z,29.83
2018-11-22T11:13:53.024Z,24.73
2018-11-22T11:16:22.122Z,24.07
2018-11-22T11:18:51.379Z,35.17
2018-11-22T11:21:20.686Z,20.90
2018-11-22T11:23:49.985Z,24.73
2018-11-22T11:26:19.249Z,26.10
2018-11-22T11:28:48.392Z,20.97
2018-11-22T11:31:17.594Z,22.03
2018-11-22T11:33:47.648Z,26.33
2018-11-22T11:36:17.846Z,22.83
2018-11-22T11:38:47.013Z,21.50
2018-11-22T11:41:16.254Z,19.23
2018-11-22T11:43:45.492Z,21.73
2018-11-22T11:46:14.804Z,20.57
2018-11-22T11:48:44.030Z,22.17
2018-11-22T11:51:13.342Z,20.23
2018-11-22T11:53:42.684Z,23.13
2018-11-22T11:56:11.922Z,21.40
2018-11-22T11:58:41.065Z,21.27
2018-11-22T12:01:10.292Z,20.43
2018-11-22T12:03:39.539Z,26.07
2018-11-22T12:06:08.812Z,22.93
2018-11-22T12:08:38.092Z,21.50
2018-11-22T12:11:07.400Z,18.80
2018-11-22T12:13:36.681Z,20.60
2018-11-22T12:16:05.996Z,23.63
2018-11-22T12:18:37.026Z,23.93
2018-11-22T12:21:05.639Z,22.33
2018-11-22T12:23:34.960Z,21.27
2018-11-22T12:26:04.114Z,23.57
2018-11-22T12:28:33.330Z,20.83
2018-11-22T12:31:06.510Z,19.57
2018-11-22T12:33:40.414Z,23.20
2018-11-22T12:36:43.788Z,23.27
2018-11-22T12:39:13.930Z,19.93
2018-11-22T12:41:43.748Z,21.40
2018-11-22T12:44:13.049Z,22.50
2018-11-22T12:46:42.282Z,22.50
2018-11-22T12:49:11.490Z,21.63
2018-11-22T12:51:40.777Z,23.40
2018-11-22T12:54:10.009Z,19.33
2018-11-22T12:56:39.156Z,19.77
2018-11-22T12:59:08.280Z,19.00
2018-11-22T13:01:37.468Z,21.80
2018-11-22T13:04:06.711Z,19.67
2018-11-22T13:06:36.103Z,21.37
2018-11-22T13:09:07.783Z,21.87
2018-11-22T13:11:37.229Z,21.53
2018-11-22T13:14:06.472Z,21.77
2018-11-22T13:16:35.793Z,20.57
2018-11-22T13:19:05.217Z,36.00
2018-11-22T13:21:34.587Z,40.00
2018-11-22T13:24:03.878Z,25.00
2018-11-22T13:26:33.075Z,24.93
2018-11-22T13:29:02.352Z,25.63
2018-11-22T13:31:31.577Z,25.07
2018-11-22T13:34:00.922Z,25.97
2018-11-22T13:36:30.151Z,25.17
2018-11-22T13:38:59.401Z,25.87
2018-11-22T13:41:28.712Z,23.30
2018-11-22T13:43:58.020Z,23.20
2018-11-22T13:46:27.267Z,26.63
2018-11-22T13:48:56.554Z,29.57
2018-11-22T13:51:26.172Z,28.40
2018-11-22T13:53:56.596Z,28.57
2018-11-22T13:56:26.006Z,29.80
2018-11-22T13:58:55.240Z,30.73
2018-11-22T14:01:24.462Z,30.40
2018-11-22T14:03:53.747Z,28.57
2018-11-22T14:06:22.944Z,27.70
2018-11-22T14:08:52.244Z,27.80
2018-11-22T14:11:21.468Z,30.33
2018-11-22T14:13:50.719Z,32.33
2018-11-22T14:16:19.940Z,27.57
2018-11-22T14:18:49.137Z,27.40
2018-11-22T14:21:18.451Z,32.70
2018-11-22T14:23:47.738Z,33.63
2018-11-22T14:26:17.772Z,36.10
2018-11-22T14:28:47.028Z,31.13
2018-11-22T14:31:16.300Z,35.60
2018-11-22T14:33:45.528Z,34.67
2018-11-22T14:36:14.770Z,27.07
2018-11-22T14:38:44.180Z,28.30
2018-11-22T14:41:13.388Z,28.47
2018-11-22T14:43:42.642Z,30.40
2018-11-22T14:46:11.846Z,28.33
2018-11-22T14:48:41.054Z,29.97
2018-11-22T14:51:43.777Z,29.97
2018-11-22T14:54:13.085Z,30.70
2018-11-22T14:56:42.248Z,31.40
2018-11-22T14:59:11.439Z,28.57
2018-11-22T15:01:40.632Z,29.60
2018-11-22T15:04:09.786Z,29.77
2018-11-22T15:06:39.132Z,28.90
2018-11-22T15:09:09.472Z,28.60
2018-11-22T15:11:38.819Z,29.47
2018-11-22T15:14:08.090Z,28.83
2018-11-22T15:16:37.253Z,29.73
2018-11-22T15:19:06.781Z,26.97
2018-11-22T15:21:36.098Z,27.10
2018-11-22T15:24:05.399Z,28.70
2018-11-22T15:26:34.671Z,27.57
2018-11-22T15:29:03.910Z,30.33
2018-11-22T15:31:33.053Z,29.73
2018-11-22T15:34:02.374Z,33.27
2018-11-22T15:36:31.713Z,28.47
2018-11-22T15:39:01.068Z,27.63
2018-11-22T15:41:30.365Z,29.90
2018-11-22T15:43:59.649Z,31.10
2018-11-22T15:46:28.901Z,31.67
2018-11-22T15:48:58.057Z,32.07
2018-11-22T15:51:27.202Z,35.00
2018-11-22T15:53:56.464Z,31.93
2018-11-22T15:56:25.802Z,30.40
2018-11-22T15:58:54.956Z,34.13
2018-11-22T16:01:24.204Z,33.53
2018-11-22T16:03:53.451Z,33.30
2018-11-22T16:06:22.616Z,29.97
2018-11-22T16:08:51.765Z,31.07
2018-11-22T16:11:20.901Z,32.40
2018-11-22T16:13:50.135Z,27.73
2018-11-22T16:16:19.465Z,29.03
2018-11-22T16:18:48.712Z,27.80
2018-11-22T16:21:17.912Z,32.80
2018-11-22T16:23:47.044Z,32.87
2018-11-22T16:26:16.350Z,35.77
2018-11-22T16:28:45.741Z,41.20
2018-11-22T16:31:14.959Z,31.00
2018-11-22T16:33:44.260Z,35.23
2018-11-22T16:36:13.532Z,32.20
2018-11-22T16:38:42.779Z,28.77
2018-11-22T16:41:11.969Z,29.33
2018-11-22T16:43:41.656Z,34.57
2018-11-22T16:46:10.857Z,31.17
2018-11-22T16:48:40.169Z,30.80
2018-11-22T16:51:09.495Z,29.60
2018-11-22T16:53:38.705Z,31.93
2018-11-22T16:56:07.973Z,32.23
2018-11-22T16:58:37.256Z,28.00
2018-11-22T17:01:06.924Z,30.47
2018-11-22T17:03:36.164Z,32.23
2018-11-22T17:06:05.810Z,30.40
2018-11-22T17:08:35.084Z,29.13
2018-11-22T17:11:04.518Z,30.07
2018-11-22T17:13:33.776Z,29.83
2018-11-22T17:16:03.193Z,35.30
2018-11-22T17:18:32.592Z,30.17
2018-11-22T17:21:02.904Z,33.07
2018-11-22T17:23:32.217Z,32.17
2018-11-22T17:26:01.435Z,28.17
2018-11-22T17:28:30.744Z,26.60
2018-11-22T17:30:59.968Z,27.80
2018-11-22T17:33:29.169Z,29.33
2018-11-22T17:35:58.364Z,28.40
2018-11-22T17:38:27.565Z,27.27
2018-11-22T17:40:56.795Z,29.47
2018-11-22T17:43:26.007Z,30.30
2018-11-22T17:45:55.136Z,28.97
2018-11-22T17:48:24.322Z,26.33
2018-11-22T17:50:53.566Z,30.93
2018-11-22T17:53:23.822Z,31.63
2018-11-22T17:55:52.827Z,29.13
2018-11-22T17:58:21.988Z,30.97
2018-11-22T18:00:52.333Z,28.67
2018-11-22T18:03:21.804Z,28.67
2018-11-22T18:05:51.285Z,26.70
2018-11-22T18:08:20.631Z,30.63
2018-11-22T18:10:49.869Z,35.80
2018-11-22T18:13:18.984Z,48.73
2018-11-22T18:15:57.678Z,94.27
2018-11-22T18:18:27.364Z,39.93
2018-11-22T18:20:56.702Z,34.13
2018-11-22T18:23:25.911Z,29.17
2018-11-22T18:25:55.263Z,30.50
2018-11-22T18:28:24.369Z,31.53
2018-11-22T18:30:53.654Z,29.97
2018-11-22T18:33:22.871Z,28.00
2018-11-22T18:35:52.127Z,28.53
2018-11-22T18:38:21.389Z,29.93
2018-11-22T18:40:50.597Z,27.83
2018-11-22T18:43:19.783Z,25.23
2018-11-22T18:45:49.346Z,29.40
2018-11-22T18:48:19.594Z,26.53
2018-11-22T18:50:48.907Z,25.77
2018-11-22T18:53:18.207Z,27.20
2018-11-22T18:55:47.421Z,28.03
2018-11-22T18:58:17.029Z,27.57
2018-11-22T19:00:47.040Z,31.70
2018-11-22T19:03:20.007Z,30.70
2018-11-22T19:05:49.528Z,26.30
2018-11-22T19:08:18.715Z,29.07
2018-11-22T19:10:47.906Z,28.77
2018-11-22T19:13:17.241Z,28.20
2018-11-22T19:15:47.351Z,28.30
2018-11-22T19:18:16.613Z,27.60
2018-11-22T19:20:46.082Z,32.17
2018-11-22T19:23:16.114Z,27.17
2018-11-22T19:25:45.438Z,31.20
2018-11-22T19:28:14.577Z,27.80
2018-11-22T19:30:45.214Z,30.10
2018-11-22T19:33:15.844Z,30.07
2018-11-22T19:35:46.664Z,31.77
2018-11-22T19:38:16.378Z,30.63
2018-11-22T19:40:45.613Z,30.90
2018-11-22T19:43:14.877Z,27.60
2018-11-22T19:45:45.773Z,25.40
2018-11-22T19:48:14.986Z,28.70
2018-11-22T19:50:44.279Z,28.17
2018-11-22T19:53:15.259Z,25.73
2018-11-22T19:55:44.634Z,28.57
2018-11-22T19:58:15.061Z,28.80
2018-11-22T20:00:44.349Z,30.30
2018-11-22T20:03:13.633Z,28.53
2018-11-22T20:05:43.304Z,30.10
2018-11-22T20:08:17.112Z,26.00
2018-11-22T20:10:47.010Z,28.20
2018-11-22T20:13:16.299Z,25.47
2018-11-22T20:15:45.601Z,30.20
2018-11-22T20:18:14.845Z,27.20
2018-11-22T20:20:49.557Z,29.53
2018-11-22T20:23:17.660Z,27.33
2018-11-22T20:25:44.311Z,30.03
2018-11-22T20:28:13.617Z,27.57
2018-11-22T20:30:44.415Z,27.90
2018-11-22T20:33:13.689Z,26.00
2018-11-22T20:35:42.992Z,29.93
2018-11-22T20:38:13.114Z,29.77
2018-11-22T20:40:42.411Z,29.30
2018-11-22T20:43:11.526Z,28.57
2018-11-22T20:45:41.279Z,29.03
2018-11-22T20:48:10.606Z,31.57
2018-11-22T20:50:39.797Z,29.73
2018-11-22T20:53:09.149Z,34.63
2018-11-22T20:55:39.650Z,29.70
2018-11-22T20:58:08.934Z,30.90
2018-11-22T21:00:39.697Z,31.53
2018-11-22T21:03:09.238Z,30.00
2018-11-22T21:05:38.411Z,30.23
2018-11-22T21:08:07.677Z,27.97
2018-11-22T21:10:36.944Z,30.80
2018-11-22T21:13:06.320Z,30.10
2018-11-22T21:15:36.298Z,28.10
2018-11-22T21:18:06.809Z,29.57
2018-11-22T21:20:37.518Z,27.53
2018-11-22T21:23:07.465Z,27.60
2018-11-22T21:25:36.691Z,26.63
2018-11-22T21:28:06.963Z,25.57
2018-11-22T21:30:37.501Z,27.97
2018-11-22T21:33:07.703Z,30.30
2018-11-22T21:35:37.250Z,28.53
2018-11-22T21:38:07.543Z,25.37
2018-11-22T21:40:36.892Z,28.13
2018-11-22T21:43:06.298Z,25.87
2018-11-22T21:45:35.737Z,25.00
2018-11-22T21:48:05.123Z,27.47
2018-11-22T21:50:34.431Z,25.50
2018-11-22T21:53:03.734Z,23.73
2018-11-22T21:55:33.017Z,26.40
2018-11-22T21:58:02.766Z,24.93
2018-11-22T22:00:42.655Z,25.03
2018-11-22T22:03:12.288Z,27.63
2018-11-22T22:05:41.803Z,22.17
2018-11-22T22:08:11.964Z,24.37
2018-11-22T22:10:41.265Z,25.53
2018-11-22T22:13:10.499Z,29.13
2018-11-22T22:15:39.773Z,27.57
2018-11-22T22:18:09.842Z,26.03
2018-11-22T22:20:39.115Z,23.07
2018-11-22T22:23:13.184Z,25.90
2018-11-22T22:25:38.459Z,23.57
2018-11-22T22:28:07.756Z,27.30
2018-11-22T22:30:36.969Z,23.70
2018-11-22T22:33:06.874Z,25.77
2018-11-22T22:35:36.087Z,25.87
2018-11-22T22:38:05.387Z,24.03
2018-11-22T22:40:34.643Z,25.87
2018-11-22T22:43:03.909Z,24.27
2018-11-22T22:45:33.648Z,23.07
2018-11-22T22:48:02.842Z,25.93
2018-11-22T22:50:32.452Z,22.70
2018-11-22T22:53:01.797Z,25.27
2018-11-22T22:55:31.344Z,26.80
2018-11-22T22:58:00.624Z,23.70
2018-11-22T23:00:47.208Z,22.83
2018-11-22T23:03:16.542Z,25.27
2018-11-22T23:05:45.767Z,24.17
2018-11-22T23:08:15.103Z,23.50
2018-11-22T23:10:44.423Z,22.23
2018-11-22T23:13:13.651Z,24.67
2018-11-22T23:15:42.790Z,23.30
2018-11-22T23:18:12.011Z,25.10
2018-11-22T23:20:41.230Z,26.87
2018-11-22T23:23:10.397Z,24.87
2018-11-22T23:25:39.604Z,23.73
2018-11-22T23:28:08.848Z,24.57
2018-11-22T23:30:38.076Z,24.27
2018-11-22T23:33:08.235Z,23.67
2018-11-22T23:35:37.431Z,21.80
2018-11-22T23:38:06.708Z,22.90
2018-11-22T23:40:36.060Z,22.57
2018-11-22T23:43:06.201Z,20.07
2018-11-22T23:45:35.476Z,22.17
2018-11-22T23:48:04.705Z,22.00
2018-11-22T23:50:34.229Z,22.73
2018-11-22T23:53:04.264Z,23.00
2018-11-22T23:55:33.504Z,24.23
2018-11-22T23:58:02.665Z,23.87
